Briggsdale, Colorado
Current Conditions -  °F | °C
As of 5:15 AM on Sunday 21 Dec 2014 (Local Time) from KGXY Reporting Station
Clear Clear  
Wind Chill:   Ceiling: Unl
Heat Index: 16°   Visibility: 10mi
Dew Point:   Wind: 7mph
Humidity: 73%   Direction: 340°NNW
Pressure: 29.76"   Gusts: NA
Location:  40.63°N, 104.33°W
Report Text: KGXY 211215Z AUTO 34006KT 10SM CLR M09/M13 A2976 RMK AO1
Loading
Personal Weather Stations






























Interactive Weather Map New forecast layout! Learn more

10-Day Weather Forecast

Advertisements
Track Severe Weather on mobile